Louis Jolliet — VA7153 — position and weather

sailwx.info

Track history (hours):
 
Tides and Currents Weather Stations Pressure Air Temp Water Temp Dewpoint Dewpoint Depression Visibility Wind Speed Wind Dir Waves Ship Positions

Louis Jolliet

Last reported at 2015-Jul-30 12:31 UTC. Time now 2015-Aug-02 04:18 UTC.
Position N 46°34' W 072°03'.

Length 50 m.

Type: Passenger vessel. MMSI: 316013356.

Date/timePositionNaut miles runAvg speedWind from/ knotsBaromVisibWave heightAir tempDewpointWater temp
2015-Jul-30 12:31N 46°34' W 072°03'6111.8
2015-Jul-30 07:19N 45°56' W 073°13'1313.2
2015-Jul-30 06:19N 45°45' W 073°24'32 2.0
2015-Jul-29 14:33N 46°10' W 072°56'10 9.8
2015-Jul-29 13:34N 46°15' W 072°44'9 9.5
2015-Jul-29 12:33N 46°20' W 072°32'10 9.7
2015-Jul-29 11:33N 46°26' W 072°21'9 9.1
2015-Jul-29 10:33N 46°32' W 072°11'8 8.4
2015-Jul-29 09:34N 46°36' W 071°60'  
2015-Jul-26 12:28N 46°34' W 072°06'1112.3
2015-Jul-26 11:33N 46°26' W 072°18'1212.1
2015-Jul-26 10:33N 46°19' W 072°33'1111.2
2015-Jul-26 09:33N 46°14' W 072°47'11 0.5
2015-Jul-25 12:23N 46°06' W 072°59'7 8.9
2015-Jul-25 11:33N 46°12' W 072°52'10 9.7
2015-Jul-25 10:33N 46°16' W 072°39'9 9.4
2015-Jul-25 09:33N 46°22' W 072°29'9 9.3
2015-Jul-25 08:33N 46°26' W 072°17'  
Track history (hours):
 
Tides and Currents Weather Stations Pressure Air Temp Water Temp Dewpoint Dewpoint Depression Visibility Wind Speed Wind Dir Waves Ship Positions

Louis Jolliet

Last reported at 2015-Jul-30 12:31 UTC. Time now 2015-Aug-02 04:18 UTC.
Position N 46°34' W 072°03'.

Length 50 m.

Type: Passenger vessel. MMSI: 316013356.

Date/timePositionNaut miles runAvg speedWind from/ knotsBaromVisibWave heightAir tempDewpointWater temp
2015-Jul-30 12:31N 46°34' W 072°03'6111.8
2015-Jul-30 07:19N 45°56' W 073°13'1313.2
2015-Jul-30 06:19N 45°45' W 073°24'32 2.0
2015-Jul-29 14:33N 46°10' W 072°56'10 9.8
2015-Jul-29 13:34N 46°15' W 072°44'9 9.5
2015-Jul-29 12:33N 46°20' W 072°32'10 9.7
2015-Jul-29 11:33N 46°26' W 072°21'9 9.1
2015-Jul-29 10:33N 46°32' W 072°11'8 8.4
2015-Jul-29 09:34N 46°36' W 071°60'  
2015-Jul-26 12:28N 46°34' W 072°06'1112.3
2015-Jul-26 11:33N 46°26' W 072°18'1212.1
2015-Jul-26 10:33N 46°19' W 072°33'1111.2
2015-Jul-26 09:33N 46°14' W 072°47'11 0.5
2015-Jul-25 12:23N 46°06' W 072°59'7 8.9
2015-Jul-25 11:33N 46°12' W 072°52'10 9.7
2015-Jul-25 10:33N 46°16' W 072°39'9 9.4
2015-Jul-25 09:33N 46°22' W 072°29'9 9.3
2015-Jul-25 08:33N 46°26' W 072°17'  

Dump ship's entire track history